Time;durP1;ratioP1;P1;durP2;ratioP2;P2;SDS_P1;SDS_P2;PMS_P1;PMS_P2;Temp;Humidity;BMP_temperature;BMP_pressure;BME280_temperature;BME280_humidity;BME280_pressure;Samples;Min_cycle;Max_cycle;Signal;HPM_P1;HPM_P2
2023/01/31 00:02:02;;;;;;;;;;;;;;;1.42;69.03;93301.69;2048497;70;20142;-76
2023/01/31 00:04:27;;;;;;;;;;;;;;;1.31;69.50;93301.16;2048486;70;20138;-76
2023/01/31 00:06:53;;;;;;;;;;;;;;;1.45;68.18;93291.53;2048592;70;20358;-77
2023/01/31 00:09:18;;;;;;;;;;;;;;;1.39;68.14;93296.47;2048478;70;20054;-78
2023/01/31 00:11:44;;;;;;;;;;;;;;;1.48;67.70;93293.22;2044947;70;20047;-77
2023/01/31 00:14:13;;;;;;;;;;;;;;;1.25;68.98;93301.28;2045111;70;20051;-77
2023/01/31 00:16:39;;;;;;;;;;;;;;;1.25;68.86;93301.28;2045071;70;20055;-77
2023/01/31 00:19:04;;;;;;;;;;;;;;;1.22;68.88;93292.00;2048356;70;20554;-77
2023/01/31 00:21:30;;;;;;;;;;;;;;;1.25;68.54;93304.06;2048468;70;20574;-76
2023/01/31 00:23:56;;;;;;;;;;;;;;;0.87;69.49;93306.31;2048217;70;20102;-76
2023/01/31 00:26:26;;;;;;;;;;;;;;;0.92;70.32;93306.22;2048365;70;20050;-76
2023/01/31 00:28:52;;;;;;;;;;;;;;;1.05;69.60;93305.44;2044997;70;20041;-77
2023/01/31 00:31:20;;;;;;;;;;;;;;;1.02;68.24;93289.91;2051477;70;20635;-77
2023/01/31 00:33:48;;;;;;;;;;;;;;;1.19;68.91;93295.09;2048204;70;20150;-76
2023/01/31 00:36:15;;;;;;;;;;;;;;;1.01;68.72;93300.25;2051640;70;20142;-76
2023/01/31 00:38:44;;;;;;;;;;;;;;;1.16;68.86;93305.25;2051611;70;20043;-78
2023/01/31 00:41:10;;;;;;;;;;;;;;;0.85;70.03;93301.31;2051515;70;20142;-78
2023/01/31 00:43:36;;;;;;;;;;;;;;;0.85;70.01;93281.91;2047782;70;20117;-76
2023/01/31 00:46:01;;;;;;;;;;;;;;;1.04;69.76;93289.34;2047928;70;20039;-77
2023/01/31 00:48:26;;;;;;;;;;;;;;;0.88;70.05;93285.66;2051461;70;20157;-78
2023/01/31 00:50:53;;;;;;;;;;;;;;;0.85;70.91;93289.47;2051627;70;20046;-77
2023/01/31 00:53:22;;;;;;;;;;;;;;;1.10;69.48;93292.75;2051346;70;20145;-77
2023/01/31 00:55:55;;;;;;;;;;;;;;;1.05;69.37;93288.81;2051218;70;20081;-77
2023/01/31 00:58:21;;;;;;;;;;;;;;;1.18;68.96;93283.25;2047917;70;20048;-76
2023/01/31 01:00:47;;;;;;;;;;;;;;;1.24;67.57;93289.44;2048193;70;20157;-76
2023/01/31 01:03:13;;;;;;;;;;;;;;;0.97;69.82;93288.72;2047942;70;20137;-77
2023/01/31 01:05:39;;;;;;;;;;;;;;;0.91;69.30;93298.41;2048335;70;20089;-77
2023/01/31 01:08:04;;;;;;;;;;;;;;;0.85;69.97;93301.31;2048005;70;20164;-78
2023/01/31 01:10:30;;;;;;;;;;;;;;;0.96;69.88;93297.56;2047968;70;20134;-77
2023/01/31 01:12:57;;;;;;;;;;;;;;;0.62;70.07;93300.22;2051523;70;20114;-77
2023/01/31 01:15:22;;;;;;;;;;;;;;;0.88;70.49;93305.78;2051520;70;20132;-77
2023/01/31 01:17:49;;;;;;;;;;;;;;;0.49;71.66;93304.47;2045656;70;20483;-77
2023/01/31 01:20:15;;;;;;;;;;;;;;;0.95;70.50;93299.59;2048040;70;20066;-77
2023/01/31 01:22:41;;;;;;;;;;;;;;;1.04;69.52;93292.88;2048170;70;20046;-78
2023/01/31 01:25:08;;;;;;;;;;;;;;;0.83;70.20;93292.03;2051333;70;20050;-76
2023/01/31 01:27:35;;;;;;;;;;;;;;;0.71;70.36;93297.78;2051519;70;20047;-77
2023/01/31 01:30:01;;;;;;;;;;;;;;;1.05;69.38;93301.94;2048077;70;20117;-77
2023/01/31 01:32:27;;;;;;;;;;;;;;;1.13;69.28;93300.75;2051143;70;20082;-77
2023/01/31 01:34:52;;;;;;;;;;;;;;;1.18;68.46;93291.56;2051321;70;20134;-77
2023/01/31 01:37:20;;;;;;;;;;;;;;;1.01;69.01;93291.19;2051221;70;20043;-77
2023/01/31 01:39:46;;;;;;;;;;;;;;;0.84;69.10;93299.06;2051585;70;20054;-77
2023/01/31 01:42:15;;;;;;;;;;;;;;;0.98;68.63;93289.47;2052751;70;20065;-76
2023/01/31 01:44:47;;;;;;;;;;;;;;;1.09;68.33;93294.78;2049465;70;20547;-77
2023/01/31 01:47:12;;;;;;;;;;;;;;;1.11;67.29;93303.31;2048558;70;20046;-77
2023/01/31 01:49:38;;;;;;;;;;;;;;;0.94;67.67;93292.56;2051557;70;20076;-78
2023/01/31 01:52:05;;;;;;;;;;;;;;;1.01;67.92;93286.38;2048207;70;20051;-76
2023/01/31 01:54:43;;;;;;;;;;;;;;;1.04;66.67;93281.03;2047820;70;20090;-77
2023/01/31 01:57:10;;;;;;;;;;;;;;;0.62;69.32;93291.91;2051185;70;20077;-78
2023/01/31 01:59:44;;;;;;;;;;;;;;;0.58;69.71;93299.81;2051414;70;20093;-78
2023/01/31 02:02:10;;;;;;;;;;;;;;;0.62;69.92;93295.44;2051434;70;20150;-77
2023/01/31 02:04:38;;;;;;;;;;;;;;;0.70;68.08;93303.88;2047615;70;20082;-78
2023/01/31 02:07:04;;;;;;;;;;;;;;;0.64;68.43;93286.56;2051479;70;20511;-78
2023/01/31 02:09:49;;;;;;;;;;;;;;;0.66;67.66;93295.88;2047699;70;20486;-78
2023/01/31 02:12:15;;;;;;;;;;;;;;;0.48;68.36;93283.59;2043751;70;20459;-79
2023/01/31 02:14:41;;;;;;;;;;;;;;;0.54;67.94;93291.06;2041156;70;20051;-78
2023/01/31 02:17:13;;;;;;;;;;;;;;;0.19;68.74;93301.97;2043700;70;20206;-77
2023/01/31 02:19:45;;;;;;;;;;;;;;;0.39;68.10;93305.44;2041276;70;20511;-77
2023/01/31 02:22:32;;;;;;;;;;;;;;;0.38;67.95;93295.63;2041250;70;20054;-78
2023/01/31 02:25:18;;;;;;;;;;;;;;;0.29;67.84;93293.28;2040988;70;20125;-79
2023/01/31 02:27:50;;;;;;;;;;;;;;;0.19;67.34;93281.84;2041127;70;20055;-77
2023/01/31 02:30:18;;;;;;;;;;;;;;;0.25;66.91;93283.25;2043647;70;20162;-76
2023/01/31 02:33:02;;;;;;;;;;;;;;;0.28;66.81;93289.00;2040813;70;20067;-77
2023/01/31 02:35:48;;;;;;;;;;;;;;;0.04;68.67;93296.19;2038448;70;20055;-76
2023/01/31 02:38:20;;;;;;;;;;;;;;;0.07;68.11;93297.91;2043434;70;20121;-77
2023/01/31 02:41:08;;;;;;;;;;;;;;;0.11;67.66;93281.72;2041055;70;20102;-78
2023/01/31 02:44:58;;;;;;;;;;;;;;;0.04;67.74;93301.72;2044715;70;20439;-78
2023/01/31 02:46:32;;;;;;;;;;;;;;;0.06;67.65;93303.97;2047517;70;20059;-77
2023/01/31 02:49:33;;;;;;;;;;;;;;;-0.03;67.42;93313.41;2048047;70;20130;-78
2023/01/31 02:52:15;;;;;;;;;;;;;;;-0.04;67.05;93311.94;2047116;70;20168;-77
2023/01/31 02:57:55;;;;;;;;;;;;;;;-0.13;67.24;93307.53;2047337;70;20054;-76
2023/01/31 03:00:21;;;;;;;;;;;;;;;-0.11;66.97;93299.44;2047431;70;20169;-76
2023/01/31 03:02:47;;;;;;;;;;;;;;;-0.13;66.65;93307.53;2047451;70;20121;-77
2023/01/31 03:05:14;;;;;;;;;;;;;;;0.01;65.53;93308.31;2047093;70;20039;-77
2023/01/31 03:07:41;;;;;;;;;;;;;;;0.08;64.94;93309.72;2047219;70;20383;-76
2023/01/31 03:10:33;;;;;;;;;;;;;;;0.07;65.38;93314.50;2047157;70;20071;-77
2023/01/31 03:13:23;;;;;;;;;;;;;;;-0.02;65.03;93304.56;2044751;70;20114;-78
2023/01/31 03:19:04;;;;;;;;;;;;;;;0.07;65.41;93314.50;2048511;70;20039;-76
2023/01/31 03:21:35;;;;;;;;;;;;;;;-0.29;65.05;93320.34;2048021;70;20054;-76
2023/01/31 03:24:04;;;;;;;;;;;;;;;-0.21;65.51;93333.56;2048375;70;20118;-76
2023/01/31 03:26:29;;;;;;;;;;;;;;;-0.34;65.42;93334.25;2047847;70;20043;-77
2023/01/31 03:28:57;;;;;;;;;;;;;;;-0.22;65.00;93330.06;2048553;70;20379;-76
2023/01/31 03:31:25;;;;;;;;;;;;;;;-0.23;64.62;93331.31;2050093;70;20055;-76
2023/01/31 03:33:54;;;;;;;;;;;;;;;-0.30;64.72;93340.22;2047899;70;20459;-77
2023/01/31 03:36:22;;;;;;;;;;;;;;;-0.24;64.68;93340.91;2047911;70;20086;-77
2023/01/31 03:38:52;;;;;;;;;;;;;;;-0.23;64.43;93347.91;2047720;70;20480;-77
2023/01/31 03:41:36;;;;;;;;;;;;;;;-0.23;64.29;93341.63;2047870;70;20522;-76
2023/01/31 03:44:09;;;;;;;;;;;;;;;-0.26;64.66;93349.72;2047853;70;20046;-78
2023/01/31 03:46:38;;;;;;;;;;;;;;;-0.27;64.72;93339.94;2048392;70;20059;-76
2023/01/31 03:49:07;;;;;;;;;;;;;;;-0.15;64.17;93342.53;2047882;70;20049;-75
2023/01/31 03:51:36;;;;;;;;;;;;;;;-0.30;64.95;93346.50;2047641;70;20057;-77
2023/01/31 03:54:05;;;;;;;;;;;;;;;-0.32;64.89;93349.06;2047794;70;20085;-79
2023/01/31 03:56:40;;;;;;;;;;;;;;;-0.24;64.50;93360.25;2045585;70;20443;-75
2023/01/31 03:59:08;;;;;;;;;;;;;;;-0.26;64.36;93357.28;2049496;70;20113;-78
2023/01/31 04:01:35;;;;;;;;;;;;;;;-0.37;63.80;93355.41;2045098;70;20455;-77
2023/01/31 04:04:06;;;;;;;;;;;;;;;-0.47;64.24;93364.59;2047859;70;20043;-77
2023/01/31 04:06:32;;;;;;;;;;;;;;;-0.49;64.62;93356.09;2045063;70;20507;-76
2023/01/31 04:08:58;;;;;;;;;;;;;;;-0.45;64.79;93357.28;2047640;70;20423;-77
2023/01/31 04:11:25;;;;;;;;;;;;;;;-0.51;63.79;93359.38;2047603;70;20047;-77
2023/01/31 04:13:51;;;;;;;;;;;;;;;-0.58;64.07;93359.97;2048276;70;20046;-76
2023/01/31 04:16:16;;;;;;;;;;;;;;;-0.72;64.76;93369.47;2048568;70;20070;-77
2023/01/31 04:18:42;;;;;;;;;;;;;;;-0.61;63.95;93370.06;2048393;70;20142;-77
2023/01/31 04:21:08;;;;;;;;;;;;;;;-0.55;63.83;93368.00;2048220;70;20042;-77
2023/01/31 04:23:35;;;;;;;;;;;;;;;-0.74;63.69;93367.19;2048134;70;20097;-78
2023/01/31 04:26:00;;;;;;;;;;;;;;;-0.67;64.39;93374.19;2047895;70;20082;-78
2023/01/31 04:28:26;;;;;;;;;;;;;;;-0.80;64.62;93374.81;2047736;70;20560;-77
2023/01/31 04:30:55;;;;;;;;;;;;;;;-0.74;63.85;93374.75;2048203;70;20556;-77
2023/01/31 04:33:21;;;;;;;;;;;;;;;-0.81;64.07;93382.38;2048308;70;20499;-77
2023/01/31 04:35:49;;;;;;;;;;;;;;;-0.78;64.00;93375.81;2050205;70;20098;-76
2023/01/31 04:38:14;;;;;;;;;;;;;;;-0.84;64.95;93369.59;2048048;70;20135;-78
2023/01/31 04:40:40;;;;;;;;;;;;;;;-1.33;66.69;93375.16;2051212;70;20050;-77
2023/01/31 04:43:05;;;;;;;;;;;;;;;-1.04;65.65;93387.41;2051479;70;20069;-78
2023/01/31 04:45:31;;;;;;;;;;;;;;;-0.96;64.70;93384.03;2051602;70;20110;-77
2023/01/31 04:47:59;;;;;;;;;;;;;;;-0.95;64.13;93393.84;2051199;70;20090;-77
2023/01/31 04:50:25;;;;;;;;;;;;;;;-0.97;64.66;93391.59;2048111;70;20228;-78
2023/01/31 04:52:51;;;;;;;;;;;;;;;-0.96;64.54;93395.88;2051611;70;20042;-76
2023/01/31 04:55:17;;;;;;;;;;;;;;;-0.89;64.10;93394.53;2048372;70;20077;-77
2023/01/31 04:57:43;;;;;;;;;;;;;;;-0.91;64.59;93392.28;2051221;70;20058;-77
2023/01/31 05:00:10;;;;;;;;;;;;;;;-0.95;63.86;93389.06;2048230;70;20046;-76
2023/01/31 05:02:36;;;;;;;;;;;;;;;-1.04;63.21;93386.66;2051607;70;20099;-76
2023/01/31 05:05:02;;;;;;;;;;;;;;;-1.00;63.84;93389.88;2048090;70;20137;-76
2023/01/31 05:07:28;;;;;;;;;;;;;;;-0.94;64.27;93390.56;2047912;70;20086;-76
2023/01/31 05:09:53;;;;;;;;;;;;;;;-1.06;64.03;93386.41;2051015;70;20191;-77
2023/01/31 05:12:19;;;;;;;;;;;;;;;-1.11;63.81;93387.22;2051216;70;20055;-77
2023/01/31 05:14:44;;;;;;;;;;;;;;;-1.34;64.29;93389.47;2051746;70;20038;-76
2023/01/31 05:17:10;;;;;;;;;;;;;;;-1.22;64.06;93385.34;2054909;70;20407;-76
2023/01/31 05:19:35;;;;;;;;;;;;;;;-1.04;63.28;93387.41;2052044;70;20046;-76
2023/01/31 05:22:01;;;;;;;;;;;;;;;-1.13;63.79;93403.59;2048097;70;20135;-77
2023/01/31 05:24:30;;;;;;;;;;;;;;;-1.06;62.99;93400.22;2051387;70;20313;-78
2023/01/31 05:27:00;;;;;;;;;;;;;;;-1.18;63.13;93410.66;2051523;70;20054;-79
2023/01/31 05:29:30;;;;;;;;;;;;;;;-1.05;63.27;93407.28;2052006;70;20205;-78
2023/01/31 05:31:56;;;;;;;;;;;;;;;-1.16;62.23;93410.88;2051714;70;20422;-78
2023/01/31 05:34:24;;;;;;;;;;;;;;;-0.89;62.25;93411.88;2048249;70;20059;-79
2023/01/31 05:36:49;;;;;;;;;;;;;;;-0.92;63.14;93418.41;2051018;70;20054;-79
2023/01/31 05:39:15;;;;;;;;;;;;;;;-1.16;62.19;93421.19;2051614;70;20415;-79
2023/01/31 05:41:40;;;;;;;;;;;;;;;-1.06;62.42;93414.78;2051117;70;20133;-79
2023/01/31 05:44:06;;;;;;;;;;;;;;;-1.02;61.84;93423.56;2051514;70;20467;-79
2023/01/31 05:46:31;;;;;;;;;;;;;;;-1.02;61.38;93426.31;2051730;70;20051;-78
2023/01/31 05:48:57;;;;;;;;;;;;;;;-0.90;60.72;93426.97;2051593;70;20066;-79
2023/01/31 05:51:22;;;;;;;;;;;;;;;-0.88;60.91;93440.25;2051513;70;20483;-78
2023/01/31 05:53:48;;;;;;;;;;;;;;;-1.09;61.45;93439.97;2051835;70;20402;-79
2023/01/31 05:56:15;;;;;;;;;;;;;;;-1.02;61.42;93439.38;2051526;70;20058;-79
2023/01/31 05:58:41;;;;;;;;;;;;;;;-1.09;62.20;93437.97;2051437;70;20049;-78
2023/01/31 06:01:06;;;;;;;;;;;;;;;-1.08;62.32;93444.22;2051567;70;20039;-78
2023/01/31 06:03:32;;;;;;;;;;;;;;;-1.06;61.79;93439.66;2051539;70;20195;-78
2023/01/31 06:05:57;;;;;;;;;;;;;;;-1.07;63.20;93437.44;2048327;70;20411;-79
2023/01/31 06:08:23;;;;;;;;;;;;;;;-1.30;62.29;93451.47;2051466;70;20050;-78
2023/01/31 06:10:48;;;;;;;;;;;;;;;-1.07;61.54;93456.78;2051469;70;20479;-78
2023/01/31 06:13:14;;;;;;;;;;;;;;;-0.98;60.99;93461.97;2048029;70;20082;-77
2023/01/31 06:15:43;;;;;;;;;;;;;;;-1.02;60.63;93455.97;2051379;70;20050;-79
2023/01/31 06:18:08;;;;;;;;;;;;;;;-1.13;61.44;93458.84;2051452;70;20145;-78
2023/01/31 06:20:34;;;;;;;;;;;;;;;-1.16;61.37;93457.13;2048240;70;20213;-78
2023/01/31 06:23:01;;;;;;;;;;;;;;;-1.12;61.34;93458.31;2051470;70;20054;-78
2023/01/31 06:25:27;;;;;;;;;;;;;;;-1.08;61.72;93461.56;2051586;70;20034;-78
2023/01/31 06:27:54;;;;;;;;;;;;;;;-1.04;61.75;93472.34;2051462;70;20198;-79
2023/01/31 06:30:19;;;;;;;;;;;;;;;-1.00;61.39;93470.03;2051421;70;20141;-78
2023/01/31 06:32:45;;;;;;;;;;;;;;;-1.05;61.43;93481.91;2051464;70;20543;-78
2023/01/31 06:35:10;;;;;;;;;;;;;;;-1.57;61.98;93475.28;2051483;70;20050;-78
2023/01/31 06:37:36;;;;;;;;;;;;;;;-1.34;61.68;93470.31;2051469;70;20051;-78
2023/01/31 06:40:01;;;;;;;;;;;;;;;-1.17;61.12;93478.47;2051440;70;20484;-78
2023/01/31 06:42:26;;;;;;;;;;;;;;;-1.12;61.11;93477.66;2047921;70;20510;-78
2023/01/31 06:44:52;;;;;;;;;;;;;;;-1.20;61.71;93487.03;2051595;70;20498;-78
2023/01/31 06:47:18;;;;;;;;;;;;;;;-1.52;62.32;93486.78;2051339;70;20086;-78
2023/01/31 06:49:44;;;;;;;;;;;;;;;-1.29;61.46;93482.59;2048233;70;20059;-78
2023/01/31 06:52:09;;;;;;;;;;;;;;;-1.35;62.03;93484.66;2051798;70;20042;-78
2023/01/31 06:54:35;;;;;;;;;;;;;;;-1.33;61.67;93484.88;2051859;70;20133;-78
2023/01/31 06:57:00;;;;;;;;;;;;;;;-1.39;61.01;93487.69;2051754;70;20502;-77
2023/01/31 06:59:25;;;;;;;;;;;;;;;-1.16;60.80;93484.75;2051943;70;20202;-78
2023/01/31 07:01:51;;;;;;;;;;;;;;;-1.08;60.75;93480.16;2051919;70;20399;-78
2023/01/31 07:04:17;;;;;;;;;;;;;;;-1.34;60.22;93480.63;2051909;70;20062;-77
2023/01/31 07:06:42;;;;;;;;;;;;;;;-1.59;61.68;93477.06;2051840;70;20057;-78
2023/01/31 07:09:08;;;;;;;;;;;;;;;-1.36;62.13;93474.88;2051927;70;20049;-77
2023/01/31 07:11:33;;;;;;;;;;;;;;;-1.64;60.53;93475.09;2051811;70;20046;-77
2023/01/31 07:13:59;;;;;;;;;;;;;;;-1.39;59.60;93479.41;2051746;70;20047;-78
2023/01/31 07:16:24;;;;;;;;;;;;;;;-1.21;60.10;93488.31;2051886;70;20080;-78
2023/01/31 07:18:52;;;;;;;;;;;;;;;-1.15;59.84;93480.72;2051842;70;20051;-78
2023/01/31 07:21:17;;;;;;;;;;;;;;;-1.14;59.06;93488.50;2051820;70;20066;-78
2023/01/31 07:23:44;;;;;;;;;;;;;;;-1.18;59.88;93498.34;2051838;70;20118;-80
2023/01/31 07:26:09;;;;;;;;;;;;;;;-1.37;60.37;93489.97;2051824;70;20482;-76
2023/01/31 07:28:35;;;;;;;;;;;;;;;-1.32;59.88;93497.44;2051780;70;20535;-77
2023/01/31 07:31:04;;;;;;;;;;;;;;;-1.27;58.59;93496.66;2051692;70;20077;-78
2023/01/31 07:33:30;;;;;;;;;;;;;;;-1.30;59.10;93501.19;2051706;70;20058;-76
2023/01/31 07:35:56;;;;;;;;;;;;;;;-1.38;58.99;93493.97;2048217;70;20058;-77
2023/01/31 07:38:21;;;;;;;;;;;;;;;-1.04;58.62;93497.22;2051709;70;20108;-77
2023/01/31 07:40:46;;;;;;;;;;;;;;;-0.92;59.29;93500.59;2051622;70;20102;-79
2023/01/31 07:43:12;;;;;;;;;;;;;;;-0.89;57.45;93497.56;2051567;70;20697;-79
2023/01/31 07:45:37;;;;;;;;;;;;;;;-1.07;59.03;93504.50;2051593;70;20127;-79
2023/01/31 07:48:05;;;;;;;;;;;;;;;-0.95;58.94;93515.47;2051550;70;20043;-79
2023/01/31 07:50:30;;;;;;;;;;;;;;;-1.13;59.24;93511.34;2051754;70;20143;-80
2023/01/31 07:52:56;;;;;;;;;;;;;;;-0.94;59.36;93517.72;2048203;70;20050;-80
2023/01/31 07:55:21;;;;;;;;;;;;;;;-0.98;58.93;93520.00;2051845;70;20054;-77
2023/01/31 07:57:47;;;;;;;;;;;;;;;-1.07;59.26;93521.09;2052636;70;20070;-77
2023/01/31 08:05:44;;;;;;;;;;;;;;;-1.14;60.55;93521.66;2051817;70;20047;-79
2023/01/31 08:08:09;;;;;;;;;;;;;;;-1.09;60.72;93522.88;2051609;70;20117;-77
2023/01/31 08:10:36;;;;;;;;;;;;;;;-1.07;59.48;93525.88;2051702;70;20434;-80
2023/01/31 08:13:01;;;;;;;;;;;;;;;-1.08;59.81;93524.38;2051481;70;20176;-78
2023/01/31 08:15:27;;;;;;;;;;;;;;;-0.99;60.51;93523.31;2051836;70;20097;-80
2023/01/31 08:17:52;;;;;;;;;;;;;;;-1.03;60.02;93526.34;2048571;70;20049;-81
2023/01/31 08:20:18;;;;;;;;;;;;;;;-0.89;59.47;93511.38;2051771;70;20145;-80
2023/01/31 08:22:43;;;;;;;;;;;;;;;-0.93;58.90;93507.41;2051759;70;20053;-81
2023/01/31 08:25:09;;;;;;;;;;;;;;;-0.85;60.08;93513.88;2051807;70;20097;-79
2023/01/31 08:27:35;;;;;;;;;;;;;;;-0.91;59.67;93504.88;2051559;70;20042;-81
2023/01/31 08:30:01;;;;;;;;;;;;;;;-1.11;57.80;93508.81;2051648;70;20043;-81
2023/01/31 08:32:26;;;;;;;;;;;;;;;-0.89;58.50;93503.09;2048296;70;20054;-80
2023/01/31 08:34:52;;;;;;;;;;;;;;;-0.89;57.59;93500.31;2051634;70;20078;-80
2023/01/31 08:37:17;;;;;;;;;;;;;;;-0.64;56.42;93500.31;2051728;70;20145;-80
2023/01/31 08:39:43;;;;;;;;;;;;;;;-0.88;56.11;93493.53;2051545;70;20046;-79
2023/01/31 08:42:09;;;;;;;;;;;;;;;-0.51;58.31;93495.66;2051416;70;20430;-78
2023/01/31 08:44:37;;;;;;;;;;;;;;;0.18;56.56;93494.34;2048316;70;20158;-79
2023/01/31 08:47:02;;;;;;;;;;;;;;;0.76;57.54;93487.44;2051654;70;20056;-77
2023/01/31 08:49:28;;;;;;;;;;;;;;;1.21;56.15;93493.00;2051593;70;20451;-78
2023/01/31 08:51:53;;;;;;;;;;;;;;;1.56;56.07;93484.78;2052037;70;20082;-80
2023/01/31 08:54:19;;;;;;;;;;;;;;;1.46;52.21;93487.25;2051676;70;20047;-78
2023/01/31 08:56:44;;;;;;;;;;;;;;;1.83;51.17;93482.75;2051820;70;20146;-80
2023/01/31 08:59:10;;;;;;;;;;;;;;;1.95;50.91;93492.38;2048325;70;20384;-82
2023/01/31 09:01:36;;;;;;;;;;;;;;;2.12;49.08;93497.59;2051585;70;20039;-78
2023/01/31 09:04:01;;;;;;;;;;;;;;;2.78;49.54;93500.91;2051581;70;20117;-79
2023/01/31 09:06:27;;;;;;;;;;;;;;;2.93;47.64;93496.78;2051353;70;20096;-79
2023/01/31 09:08:53;;;;;;;;;;;;;;;3.17;46.39;93492.94;2051442;70;20039;-78
2023/01/31 09:11:20;;;;;;;;;;;;;;;2.79;48.99;93488.53;2051319;70;20146;-79
2023/01/31 09:13:50;;;;;;;;;;;;;;;3.08;49.96;93487.84;2051303;70;20047;-78
2023/01/31 09:16:15;;;;;;;;;;;;;;;3.25;49.83;93479.81;2051488;70;20130;-77
2023/01/31 09:18:41;;;;;;;;;;;;;;;3.86;50.15;93479.50;2051456;70;20055;-76
2023/01/31 09:21:11;;;;;;;;;;;;;;;4.35;49.34;93484.94;2051489;70;20046;-77
2023/01/31 09:23:38;;;;;;;;;;;;;;;4.48;47.01;93482.00;2051412;70;20069;-76
2023/01/31 09:26:04;;;;;;;;;;;;;;;4.95;48.45;93482.88;2051528;70;20039;-76
2023/01/31 09:28:31;;;;;;;;;;;;;;;5.03;47.70;93481.59;2051328;70;20470;-74
2023/01/31 09:31:01;;;;;;;;;;;;;;;4.83;46.19;93477.66;2051534;70;20054;-75
2023/01/31 09:33:27;;;;;;;;;;;;;;;5.34;46.45;93479.56;2051429;70;20043;-75
2023/01/31 09:35:56;;;;;;;;;;;;;;;5.30;45.58;93479.19;2051499;70;20050;-75
2023/01/31 09:38:22;;;;;;;;;;;;;;;5.63;45.57;93470.97;2051426;70;20483;-75
2023/01/31 09:40:48;;;;;;;;;;;;;;;5.51;42.94;93478.28;2051493;70;20137;-75
2023/01/31 09:43:14;;;;;;;;;;;;;;;5.97;43.60;93478.97;2051503;70;20565;-75
2023/01/31 09:45:42;;;;;;;;;;;;;;;5.99;44.71;93478.41;2051465;70;20050;-75
2023/01/31 09:48:14;;;;;;;;;;;;;;;5.87;43.78;93483.63;2051517;70;20149;-75
2023/01/31 09:50:41;;;;;;;;;;;;;;;6.25;43.82;93483.56;2051520;70;20113;-75
2023/01/31 09:53:13;;;;;;;;;;;;;;;6.54;42.46;93483.25;2051414;70;20043;-77
2023/01/31 09:55:45;;;;;;;;;;;;;;;6.76;44.36;93485.22;2051434;70;20433;-75
2023/01/31 09:58:30;;;;;;;;;;;;;;;7.38;43.11;93477.19;2051398;70;20042;-74
2023/01/31 10:01:15;;;;;;;;;;;;;;;7.25;41.06;93472.63;2051371;70;20063;-76
2023/01/31 10:03:40;;;;;;;;;;;;;;;7.27;40.79;93472.78;2051581;70;20130;-77
2023/01/31 10:06:06;;;;;;;;;;;;;;;7.92;39.65;93469.06;2051470;70;20137;-76
2023/01/31 10:08:58;;;;;;;;;;;;;;;7.87;39.32;93467.97;2051407;70;20046;-76
2023/01/31 10:11:35;;;;;;;;;;;;;;;6.54;40.28;93455.28;2051215;70;20050;-76
2023/01/31 10:14:12;;;;;;;;;;;;;;;7.56;40.38;93455.56;2048035;70;20061;-76
2023/01/31 10:16:44;;;;;;;;;;;;;;;8.53;39.04;93465.63;2051543;70;20069;-77
2023/01/31 10:19:21;;;;;;;;;;;;;;;9.22;38.68;93466.78;2051371;70;20042;-77
2023/01/31 10:22:09;;;;;;;;;;;;;;;9.47;36.95;93466.59;2051470;70;20093;-76
2023/01/31 10:24:52;;;;;;;;;;;;;;;9.93;36.75;93467.31;2051543;70;20043;-76
2023/01/31 10:27:26;;;;;;;;;;;;;;;10.18;36.39;93463.53;2051763;70;20442;-77
2023/01/31 10:29:54;;;;;;;;;;;;;;;9.62;36.43;93469.94;2051944;70;20047;-77
2023/01/31 10:32:19;;;;;;;;;;;;;;;9.91;36.62;93458.00;2048582;70;20494;-77
2023/01/31 10:35:04;;;;;;;;;;;;;;;11.01;34.93;93454.03;2051649;70;20245;-76
2023/01/31 10:37:36;;;;;;;;;;;;;;;11.92;34.32;93446.31;2051737;70;20137;-77
2023/01/31 10:40:12;;;;;;;;;;;;;;;12.63;31.83;93452.34;2051741;70;20061;-78
2023/01/31 10:42:39;;;;;;;;;;;;;;;13.27;30.44;93449.38;2051609;70;20157;-77
2023/01/31 10:45:04;;;;;;;;;;;;;;;13.36;30.16;93436.50;2051722;70;20438;-77
2023/01/31 10:47:38;;;;;;;;;;;;;;;14.05;30.40;93429.38;2051655;70;20113;-77
2023/01/31 10:50:33;;;;;;;;;;;;;;;13.31;29.42;93418.53;2048426;70;20079;-77
2023/01/31 10:53:22;;;;;;;;;;;;;;;13.89;29.24;93417.84;2048011;70;20058;-76
2023/01/31 10:56:02;;;;;;;;;;;;;;;14.01;29.81;93411.41;2046710;70;20144;-79
2023/01/31 10:58:28;;;;;;;;;;;;;;;15.21;28.71;93407.69;2051524;70;20496;-77
2023/01/31 11:00:53;;;;;;;;;;;;;;;15.87;27.26;93409.09;2051712;70;20058;-78
2023/01/31 11:03:19;;;;;;;;;;;;;;;16.31;24.88;93392.88;2051767;70;20050;-77
2023/01/31 11:05:48;;;;;;;;;;;;;;;13.81;27.64;93391.13;2051681;70;20478;-77
2023/01/31 11:08:25;;;;;;;;;;;;;;;14.23;27.30;93381.56;2048638;70;20476;-78
2023/01/31 11:10:51;;;;;;;;;;;;;;;14.28;27.01;93371.22;2051924;70;20481;-79
2023/01/31 11:13:17;;;;;;;;;;;;;;;15.86;26.42;93376.41;2051781;70;20503;-80
2023/01/31 11:15:43;;;;;;;;;;;;;;;17.15;22.73;93380.66;2051678;70;20071;-81
2023/01/31 11:18:13;;;;;;;;;;;;;;;19.84;21.36;93379.91;2051916;70;20426;-81
2023/01/31 11:20:45;;;;;;;;;;;;;;;20.42;20.22;93380.53;2051766;70;20169;-87
2023/01/31 11:23:13;;;;;;;;;;;;;;;19.52;20.75;93374.41;2048868;70;20073;-88
2023/01/31 11:25:38;;;;;;;;;;;;;;;18.90;21.79;93370.53;2051768;70;20066;-86
2023/01/31 11:28:15;;;;;;;;;;;;;;;19.59;22.68;93366.06;2051771;70;20478;-87
2023/01/31 11:30:41;;;;;;;;;;;;;;;20.25;19.74;93367.06;2051959;70;20042;-86
2023/01/31 11:33:06;;;;;;;;;;;;;;;21.21;19.62;93356.75;2048537;70;20054;-86
2023/01/31 11:35:33;;;;;;;;;;;;;;;20.00;20.73;93349.06;2051751;70;20483;-78
2023/01/31 11:38:00;;;;;;;;;;;;;;;19.63;20.82;93351.97;2051930;70;20058;-81
2023/01/31 11:40:29;;;;;;;;;;;;;;;15.85;23.11;93338.03;2051691;70;20055;-85
2023/01/31 11:42:56;;;;;;;;;;;;;;;15.47;21.95;93326.09;2048412;70;20051;-85
2023/01/31 11:45:22;;;;;;;;;;;;;;;15.13;22.74;93321.44;2051990;70;20499;-83
2023/01/31 11:47:49;;;;;;;;;;;;;;;16.41;24.15;93316.66;2051970;70;20427;-85
2023/01/31 11:50:41;;;;;;;;;;;;;;;17.20;23.27;93319.72;2051770;70;20078;-84
2023/01/31 11:53:15;;;;;;;;;;;;;;;17.68;23.20;93323.28;2050151;70;20046;-80
2023/01/31 11:55:42;;;;;;;;;;;;;;;16.36;22.74;93315.00;2051708;70;20171;-87
2023/01/31 11:58:27;;;;;;;;;;;;;;;14.41;25.34;93308.97;2051750;70;20475;-81
2023/01/31 12:00:58;;;;;;;;;;;;;;;13.95;24.86;93307.06;2050910;70;20431;-80
2023/01/31 12:03:24;;;;;;;;;;;;;;;13.65;25.71;93289.03;2051684;70;20134;-79
2023/01/31 12:05:51;;;;;;;;;;;;;;;14.73;24.83;93295.19;2051594;70;20058;-77
2023/01/31 12:08:26;;;;;;;;;;;;;;;13.79;24.13;93280.63;2051675;70;20069;-79
2023/01/31 12:10:52;;;;;;;;;;;;;;;13.52;24.09;93276.28;2051608;70;20439;-78
2023/01/31 12:13:18;;;;;;;;;;;;;;;14.27;25.11;93267.81;2051344;70;20522;-80
2023/01/31 12:15:47;;;;;;;;;;;;;;;14.15;25.43;93276.34;2050863;70;20051;-78
2023/01/31 12:18:13;;;;;;;;;;;;;;;14.07;25.00;93261.75;2051504;70;20085;-77
2023/01/31 12:20:44;;;;;;;;;;;;;;;13.95;24.18;93261.78;2051468;70;20503;-76
2023/01/31 12:23:19;;;;;;;;;;;;;;;13.62;24.79;93259.91;2048219;70;20555;-79
2023/01/31 12:25:44;;;;;;;;;;;;;;;13.68;25.12;93263.06;2051397;70;20047;-79
2023/01/31 12:28:13;;;;;;;;;;;;;;;13.21;26.50;93262.41;2051299;70;20081;-79
2023/01/31 12:30:53;;;;;;;;;;;;;;;13.32;26.61;93260.94;2051431;70;20054;-79
2023/01/31 12:33:28;;;;;;;;;;;;;;;12.72;26.42;93260.16;2051459;70;20102;-78
2023/01/31 12:36:04;;;;;;;;;;;;;;;12.33;26.12;93253.47;2051442;70;20043;-79
2023/01/31 12:38:30;;;;;;;;;;;;;;;11.38;26.82;93240.28;2051562;70;20565;-77
2023/01/31 12:41:13;;;;;;;;;;;;;;;11.49;26.74;93242.41;2051846;70;20046;-77
2023/01/31 12:43:58;;;;;;;;;;;;;;;12.09;26.45;93236.44;2048659;70;20135;-78
2023/01/31 12:46:42;;;;;;;;;;;;;;;12.11;25.28;93235.84;2051726;70;20046;-76
2023/01/31 12:49:27;;;;;;;;;;;;;;;11.90;24.51;93231.72;2051590;70;20117;-77
2023/01/31 12:52:01;;;;;;;;;;;;;;;11.27;26.04;93226.84;2051407;70;20173;-79
2023/01/31 12:54:53;;;;;;;;;;;;;;;11.37;25.80;93233.19;2051728;70;20052;-77
2023/01/31 12:57:28;;;;;;;;;;;;;;;11.32;26.32;93243.44;2050872;70;20110;-77
2023/01/31 13:00:01;;;;;;;;;;;;;;;11.18;26.49;93240.41;2051586;70;20053;-77
2023/01/31 13:02:30;;;;;;;;;;;;;;;11.10;25.63;93236.31;2051610;70;20050;-81
2023/01/31 13:04:55;;;;;;;;;;;;;;;11.06;27.35;93228.31;2051868;70;20519;-82
2023/01/31 13:07:25;;;;;;;;;;;;;;;10.53;28.02;93229.59;2051578;70;20058;-80
2023/01/31 13:09:53;;;;;;;;;;;;;;;9.03;32.55;93237.13;2051626;70;20049;-80
2023/01/31 13:12:20;;;;;;;;;;;;;;;9.41;30.86;93231.56;2051438;70;20074;-77